Time;durP1;ratioP1;P1;durP2;ratioP2;P2;SDS_P1;SDS_P2;PMS_P1;PMS_P2;Temp;Humidity;BMP_temperature;BMP_pressure;BME280_temperature;BME280_humidity;BME280_pressure;Samples;Min_cycle;Max_cycle;Signal;HPM_P1;HPM_P2
2022/03/19 00:01:49;;;;;;;30.25;19.73;;;;;;;;;;5030922;28;20029;-75
2022/03/19 00:04:16;;;;;;;24.08;17.02;;;;;;;;;;5034831;28;20087;-75
2022/03/19 00:06:44;;;;;;;22.25;16.58;;;;;;;;;;5034364;28;20041;-75
2022/03/19 00:09:10;;;;;;;20.02;13.75;;;;;;;;;;5034154;28;20033;-75
2022/03/19 00:11:37;;;;;;;17.55;13.30;;;;;;;;;;5032940;28;20029;-74
2022/03/19 00:14:04;;;;;;;17.15;13.02;;;;;;;;;;5034644;28;20021;-75
2022/03/19 00:16:30;;;;;;;17.75;13.38;;;;;;;;;;5035794;28;20165;-75
2022/03/19 00:18:56;;;;;;;20.45;15.85;;;;;;;;;;5035920;28;20034;-75
2022/03/19 00:21:23;;;;;;;20.58;17.40;;;;;;;;;;5035710;28;20108;-74
2022/03/19 00:23:49;;;;;;;19.92;17.35;;;;;;;;;;5034810;28;20041;-74
2022/03/19 00:26:17;;;;;;;21.30;17.90;;;;;;;;;;5034731;28;20052;-74
2022/03/19 00:28:44;;;;;;;24.60;19.10;;;;;;;;;;5035627;28;20029;-74
2022/03/19 00:31:10;;;;;;;24.73;20.85;;;;;;;;;;5036006;28;20030;-74
2022/03/19 00:33:36;;;;;;;30.15;22.77;;;;;;;;;;5033905;28;20029;-74
2022/03/19 00:36:03;;;;;;;26.10;21.33;;;;;;;;;;5026625;28;20547;-75
2022/03/19 00:38:29;;;;;;;28.23;22.33;;;;;;;;;;5029060;28;20468;-74
2022/03/19 00:40:55;;;;;;;34.33;24.85;;;;;;;;;;5035498;28;20025;-75
2022/03/19 00:43:21;;;;;;;40.78;28.15;;;;;;;;;;5035296;28;20034;-74
2022/03/19 00:45:49;;;;;;;42.97;29.08;;;;;;;;;;5034139;28;20361;-75
2022/03/19 00:48:16;;;;;;;44.40;31.98;;;;;;;;;;5030279;28;20104;-75
2022/03/19 00:50:42;;;;;;;44.28;31.50;;;;;;;;;;5035318;28;20112;-75
2022/03/19 00:53:09;;;;;;;43.03;31.15;;;;;;;;;;5035065;28;20440;-75
2022/03/19 00:55:35;;;;;;;37.95;26.55;;;;;;;;;;5035373;28;20025;-75
2022/03/19 00:58:01;;;;;;;37.42;26.13;;;;;;;;;;5031787;28;20029;-74
2022/03/19 01:00:28;;;;;;;50.28;29.45;;;;;;;;;;5028558;28;20030;-75
2022/03/19 01:02:55;;;;;;;57.35;32.83;;;;;;;;;;5033195;28;20029;-77
2022/03/19 01:05:23;;;;;;;50.35;29.35;;;;;;;;;;5034494;28;20025;-74
2022/03/19 01:07:50;;;;;;;42.40;26.50;;;;;;;;;;5033986;28;20069;-74
2022/03/19 01:10:17;;;;;;;47.30;27.35;;;;;;;;;;5033119;28;20030;-75
2022/03/19 01:12:44;;;;;;;43.58;24.75;;;;;;;;;;5034474;28;20022;-74
2022/03/19 01:15:11;;;;;;;38.53;24.67;;;;;;;;;;5033589;28;20017;-74
2022/03/19 01:17:37;;;;;;;39.60;24.30;;;;;;;;;;5026764;28;20092;-75
2022/03/19 01:20:04;;;;;;;28.80;20.85;;;;;;;;;;5034330;28;20018;-75
2022/03/19 01:22:30;;;;;;;31.02;20.38;;;;;;;;;;5033226;28;20056;-75
2022/03/19 01:24:59;;;;;;;25.90;17.35;;;;;;;;;;5032988;28;20371;-75
2022/03/19 01:27:25;;;;;;;24.42;17.00;;;;;;;;;;5029474;28;20037;-75
2022/03/19 01:29:51;;;;;;;23.73;16.42;;;;;;;;;;5033707;28;20025;-75
2022/03/19 01:32:18;;;;;;;26.02;17.83;;;;;;;;;;5034675;28;20028;-75
2022/03/19 01:34:44;;;;;;;23.60;16.83;;;;;;;;;;5034437;28;20045;-75
2022/03/19 01:37:10;;;;;;;28.77;22.00;;;;;;;;;;5033909;28;20029;-75
2022/03/19 01:39:37;;;;;;;28.40;20.02;;;;;;;;;;5034028;28;20036;-76
2022/03/19 01:42:04;;;;;;;27.45;19.80;;;;;;;;;;5034271;28;20061;-75
2022/03/19 01:44:30;;;;;;;32.67;23.63;;;;;;;;;;5034212;28;20507;-75
2022/03/19 01:47:03;;;;;;;30.98;23.63;;;;;;;;;;5033721;28;20021;-74
2022/03/19 01:49:30;;;;;;;27.88;21.63;;;;;;;;;;5033834;28;20464;-75
2022/03/19 01:51:56;;;;;;;25.42;19.23;;;;;;;;;;5029892;28;20083;-75
2022/03/19 01:54:27;;;;;;;21.73;17.42;;;;;;;;;;5034173;28;20032;-74
2022/03/19 01:56:54;;;;;;;19.25;17.15;;;;;;;;;;5034637;28;20472;-75
2022/03/19 01:59:22;;;;;;;19.90;16.40;;;;;;;;;;5028581;28;20041;-74
2022/03/19 02:01:49;;;;;;;15.93;12.68;;;;;;;;;;5025515;28;20100;-75
2022/03/19 02:04:16;;;;;;;16.88;13.93;;;;;;;;;;5024035;28;20045;-74
2022/03/19 02:06:44;;;;;;;15.23;12.88;;;;;;;;;;5030013;28;20029;-75
2022/03/19 02:09:10;;;;;;;26.63;15.38;;;;;;;;;;5026755;28;20022;-75
2022/03/19 02:11:37;;;;;;;21.65;17.42;;;;;;;;;;5026008;28;20080;-75
2022/03/19 02:14:04;;;;;;;20.63;16.67;;;;;;;;;;5025012;28;20018;-76
2022/03/19 02:16:30;;;;;;;22.65;17.90;;;;;;;;;;5033090;28;20025;-74
2022/03/19 02:19:00;;;;;;;17.25;14.82;;;;;;;;;;5027945;28;20100;-75
2022/03/19 02:21:27;;;;;;;20.05;15.98;;;;;;;;;;5032326;28;20467;-76
2022/03/19 02:26:46;;;;;;;24.73;20.13;;;;;;;;;;5031085;28;20331;-74
2022/03/19 02:29:12;;;;;;;24.13;18.88;;;;;;;;;;5028046;28;20018;-75
2022/03/19 02:31:40;;;;;;;24.75;19.65;;;;;;;;;;5032713;28;20456;-76
2022/03/19 02:34:10;;;;;;;24.23;18.38;;;;;;;;;;5032754;28;20021;-75
2022/03/19 02:36:36;;;;;;;21.95;17.67;;;;;;;;;;5031696;28;20102;-75
2022/03/19 02:39:32;;;;;;;23.08;18.52;;;;;;;;;;5028965;28;20021;-75
2022/03/19 02:41:59;;;;;;;23.25;17.83;;;;;;;;;;5016202;28;20044;-75
2022/03/19 02:44:26;;;;;;;21.13;18.63;;;;;;;;;;5032088;28;20025;-75
2022/03/19 02:46:53;;;;;;;25.90;20.90;;;;;;;;;;5032993;28;20083;-75
2022/03/19 02:49:20;;;;;;;28.40;23.75;;;;;;;;;;5011978;28;20036;-75
2022/03/19 02:51:47;;;;;;;27.45;23.83;;;;;;;;;;5030110;28;20160;-75
2022/03/19 02:54:15;;;;;;;27.15;21.90;;;;;;;;;;5032643;28;20072;-74
2022/03/19 02:56:43;;;;;;;27.40;22.70;;;;;;;;;;5032464;28;20044;-74
2022/03/19 02:59:10;;;;;;;29.13;22.80;;;;;;;;;;5030632;28;20033;-76
2022/03/19 03:01:37;;;;;;;25.67;22.05;;;;;;;;;;5031126;28;20032;-75
2022/03/19 03:04:04;;;;;;;26.17;21.63;;;;;;;;;;5021122;28;20042;-75
2022/03/19 03:06:34;;;;;;;26.23;22.15;;;;;;;;;;4994145;28;20034;-75
2022/03/19 03:09:00;;;;;;;24.75;20.95;;;;;;;;;;5010016;28;20033;-75
2022/03/19 03:11:27;;;;;;;24.17;19.95;;;;;;;;;;5012091;28;20034;-75
2022/03/19 03:13:53;;;;;;;25.98;22.42;;;;;;;;;;5013138;28;20026;-75
2022/03/19 03:16:19;;;;;;;25.88;22.00;;;;;;;;;;5018766;28;20129;-78
2022/03/19 03:18:46;;;;;;;26.42;21.08;;;;;;;;;;5010784;28;20057;-75
2022/03/19 03:21:12;;;;;;;22.85;18.40;;;;;;;;;;5012559;28;20064;-75
2022/03/19 03:23:39;;;;;;;19.70;17.52;;;;;;;;;;5013343;28;20053;-75
2022/03/19 03:26:06;;;;;;;18.48;16.00;;;;;;;;;;5008833;28;20034;-76
2022/03/19 03:28:32;;;;;;;18.00;16.10;;;;;;;;;;5006307;28;20022;-75
2022/03/19 03:30:58;;;;;;;21.15;17.95;;;;;;;;;;5012040;28;20477;-75
2022/03/19 03:33:25;;;;;;;20.23;16.23;;;;;;;;;;5015355;28;20045;-74
2022/03/19 03:35:51;;;;;;;18.35;14.40;;;;;;;;;;5016016;28;20026;-75
2022/03/19 03:38:17;;;;;;;22.55;17.65;;;;;;;;;;5009411;28;20033;-74
2022/03/19 03:40:43;;;;;;;19.85;17.65;;;;;;;;;;5016257;28;20048;-76
2022/03/19 03:43:10;;;;;;;20.85;17.00;;;;;;;;;;5014890;28;20041;-74
2022/03/19 03:45:36;;;;;;;24.15;19.42;;;;;;;;;;5016818;28;20021;-75
2022/03/19 03:48:03;;;;;;;25.83;21.17;;;;;;;;;;5011333;28;20026;-75
2022/03/19 03:50:29;;;;;;;25.63;20.90;;;;;;;;;;5011244;28;20069;-75
2022/03/19 03:52:56;;;;;;;26.92;22.58;;;;;;;;;;5016956;28;20018;-74
2022/03/19 03:55:22;;;;;;;34.17;26.98;;;;;;;;;;5016852;28;20404;-74
2022/03/19 03:57:49;;;;;;;34.05;28.08;;;;;;;;;;4999166;28;20030;-76
2022/03/19 04:00:15;;;;;;;30.70;27.38;;;;;;;;;;5016127;28;20034;-76
2022/03/19 04:02:42;;;;;;;33.08;27.10;;;;;;;;;;5014515;28;20072;-76
2022/03/19 04:05:09;;;;;;;36.10;29.00;;;;;;;;;;5033652;28;20061;-76
2022/03/19 04:07:35;;;;;;;32.75;27.30;;;;;;;;;;5034708;28;20105;-76
2022/03/19 04:10:02;;;;;;;30.92;26.23;;;;;;;;;;5030920;28;20024;-75
2022/03/19 04:12:28;;;;;;;29.88;25.48;;;;;;;;;;5024070;28;20028;-76
2022/03/19 04:14:54;;;;;;;30.83;25.95;;;;;;;;;;5030156;28;20025;-75
2022/03/19 04:17:21;;;;;;;30.83;25.90;;;;;;;;;;5034293;28;20026;-75
2022/03/19 04:19:47;;;;;;;26.13;22.38;;;;;;;;;;5033747;28;20052;-76
2022/03/19 04:22:13;;;;;;;23.55;21.00;;;;;;;;;;5035153;28;20025;-75
2022/03/19 04:24:39;;;;;;;23.63;19.85;;;;;;;;;;5031113;28;20025;-76
2022/03/19 04:27:07;;;;;;;24.05;21.23;;;;;;;;;;5031627;28;20029;-76
2022/03/19 04:29:34;;;;;;;26.17;22.50;;;;;;;;;;5027972;28;20025;-76
2022/03/19 04:32:00;;;;;;;28.38;25.35;;;;;;;;;;5032526;28;20014;-76
2022/03/19 04:34:26;;;;;;;32.30;28.05;;;;;;;;;;5016203;28;20480;-76
2022/03/19 04:36:53;;;;;;;38.58;29.85;;;;;;;;;;5029660;28;20026;-76
2022/03/19 04:39:20;;;;;;;38.10;32.45;;;;;;;;;;5028438;28;20033;-76
2022/03/19 04:41:46;;;;;;;39.15;31.92;;;;;;;;;;5034368;28;20117;-76
2022/03/19 04:44:12;;;;;;;38.25;32.15;;;;;;;;;;5030210;28;20033;-77
2022/03/19 04:46:39;;;;;;;34.03;28.35;;;;;;;;;;5033103;28;20057;-76
2022/03/19 04:49:05;;;;;;;30.08;26.88;;;;;;;;;;5033177;28;20025;-76
2022/03/19 04:51:32;;;;;;;32.22;27.95;;;;;;;;;;5032290;28;20021;-76
2022/03/19 04:53:59;;;;;;;27.77;24.33;;;;;;;;;;5031943;28;20059;-76
2022/03/19 04:56:27;;;;;;;26.15;23.35;;;;;;;;;;5022817;28;20026;-76
2022/03/19 04:58:54;;;;;;;30.67;26.30;;;;;;;;;;5021451;28;20106;-76
2022/03/19 05:01:21;;;;;;;29.25;23.90;;;;;;;;;;5019677;28;20061;-76
2022/03/19 05:03:47;;;;;;;27.98;24.70;;;;;;;;;;5028267;28;20072;-76
2022/03/19 05:06:14;;;;;;;27.17;23.38;;;;;;;;;;5029055;28;20034;-76
2022/03/19 05:08:40;;;;;;;33.10;28.92;;;;;;;;;;5027268;28;20029;-76
2022/03/19 05:11:12;;;;;;;33.33;29.27;;;;;;;;;;5033619;28;20044;-75
2022/03/19 05:13:39;;;;;;;30.75;27.38;;;;;;;;;;5032660;28;20112;-75
2022/03/19 05:16:05;;;;;;;31.38;27.98;;;;;;;;;;5027876;28;20040;-76
2022/03/19 05:18:32;;;;;;;33.45;29.70;;;;;;;;;;5023139;28;20026;-75
2022/03/19 05:20:58;;;;;;;33.42;29.83;;;;;;;;;;5025269;28;20071;-76
2022/03/19 05:23:24;;;;;;;34.53;29.27;;;;;;;;;;5028765;28;20399;-76
2022/03/19 05:25:52;;;;;;;35.60;30.52;;;;;;;;;;5031395;28;20057;-76
2022/03/19 05:28:19;;;;;;;35.00;29.50;;;;;;;;;;5028435;28;20022;-75
2022/03/19 05:30:46;;;;;;;33.95;29.40;;;;;;;;;;5024785;28;20029;-76
2022/03/19 05:33:13;;;;;;;37.42;32.55;;;;;;;;;;5021984;28;20144;-76
2022/03/19 05:35:39;;;;;;;37.03;33.10;;;;;;;;;;5023238;28;20384;-76
2022/03/19 05:38:06;;;;;;;35.45;31.70;;;;;;;;;;5021721;28;20033;-76
2022/03/19 05:40:32;;;;;;;37.33;30.65;;;;;;;;;;5023902;28;20152;-76
2022/03/19 05:42:59;;;;;;;34.13;28.65;;;;;;;;;;5027941;28;20503;-75
2022/03/19 05:45:25;;;;;;;34.90;29.30;;;;;;;;;;5019524;28;20037;-75
2022/03/19 05:47:51;;;;;;;33.50;27.73;;;;;;;;;;5027127;28;20037;-76
2022/03/19 05:50:19;;;;;;;41.40;33.92;;;;;;;;;;5019966;28;20368;-76
2022/03/19 05:52:45;;;;;;;43.63;37.63;;;;;;;;;;5029472;28;20029;-76
2022/03/19 05:55:12;;;;;;;44.45;37.25;;;;;;;;;;5023608;28;20032;-76
2022/03/19 05:57:38;;;;;;;38.30;32.88;;;;;;;;;;5024689;28;20029;-76
2022/03/19 06:00:07;;;;;;;34.33;30.52;;;;;;;;;;5023915;28;20021;-76
2022/03/19 06:02:38;;;;;;;35.95;30.27;;;;;;;;;;5023264;28;20049;-76
2022/03/19 06:05:05;;;;;;;40.40;33.17;;;;;;;;;;5025542;28;20045;-77
2022/03/19 06:07:31;;;;;;;36.97;32.33;;;;;;;;;;5028080;28;20504;-75
2022/03/19 06:10:05;;;;;;;46.50;37.92;;;;;;;;;;5022162;28;20064;-75
2022/03/19 06:12:31;;;;;;;38.80;34.60;;;;;;;;;;5024732;28;20337;-76
2022/03/19 06:14:57;;;;;;;41.67;35.72;;;;;;;;;;5024431;28;20040;-77
2022/03/19 06:17:24;;;;;;;45.65;34.90;;;;;;;;;;5019940;28;20066;-76
2022/03/19 06:19:51;;;;;;;36.50;31.92;;;;;;;;;;5022748;28;20030;-76
2022/03/19 06:22:20;;;;;;;39.33;34.20;;;;;;;;;;5017854;28;20030;-76
2022/03/19 06:24:46;;;;;;;34.58;28.67;;;;;;;;;;5022683;28;20026;-76
2022/03/19 06:27:13;;;;;;;35.45;31.67;;;;;;;;;;5027209;28;20129;-76
2022/03/19 06:29:39;;;;;;;34.85;30.42;;;;;;;;;;5021943;28;20021;-76
2022/03/19 06:32:05;;;;;;;38.85;34.63;;;;;;;;;;5023326;28;20540;-77
2022/03/19 06:34:32;;;;;;;37.03;30.90;;;;;;;;;;5023849;28;20514;-77
2022/03/19 06:39:48;;;;;;;34.85;28.40;;;;;;;;;;5025663;28;20095;-77
2022/03/19 06:42:14;;;;;;;34.13;27.90;;;;;;;;;;5020600;28;20124;-77
2022/03/19 06:44:44;;;;;;;30.90;27.08;;;;;;;;;;5027079;28;20032;-77
2022/03/19 06:47:10;;;;;;;30.20;25.50;;;;;;;;;;5028357;28;20033;-76
2022/03/19 06:49:36;;;;;;;31.50;26.83;;;;;;;;;;5025862;28;20435;-76
2022/03/19 06:52:03;;;;;;;30.23;25.33;;;;;;;;;;5026647;28;20323;-76
2022/03/19 06:54:29;;;;;;;31.42;25.92;;;;;;;;;;5027017;28;20487;-76
2022/03/19 06:56:55;;;;;;;30.10;25.40;;;;;;;;;;5027883;28;20034;-76
2022/03/19 06:59:22;;;;;;;30.95;24.30;;;;;;;;;;5027081;28;20140;-77
2022/03/19 07:01:48;;;;;;;27.83;23.50;;;;;;;;;;5024712;28;20476;-76
2022/03/19 07:04:15;;;;;;;27.00;23.77;;;;;;;;;;5018364;28;20056;-76
2022/03/19 07:06:41;;;;;;;30.50;26.20;;;;;;;;;;5025738;28;20032;-76
2022/03/19 07:09:07;;;;;;;24.35;20.75;;;;;;;;;;5027192;28;20041;-76
2022/03/19 07:11:35;;;;;;;23.45;18.05;;;;;;;;;;5026903;28;20431;-76
2022/03/19 07:14:03;;;;;;;24.00;18.83;;;;;;;;;;5026829;28;20533;-76
2022/03/19 07:16:30;;;;;;;25.27;21.00;;;;;;;;;;5017418;28;20033;-77
2022/03/19 07:18:56;;;;;;;28.33;22.67;;;;;;;;;;5020284;28;20026;-77
2022/03/19 07:21:22;;;;;;;24.88;21.10;;;;;;;;;;5021870;28;20412;-77
2022/03/19 07:23:49;;;;;;;26.20;21.17;;;;;;;;;;5024648;28;20059;-77
2022/03/19 07:26:16;;;;;;;25.73;21.83;;;;;;;;;;5021042;28;20034;-76
2022/03/19 07:28:43;;;;;;;22.45;17.83;;;;;;;;;;5021680;28;20022;-76
2022/03/19 07:31:09;;;;;;;23.73;18.83;;;;;;;;;;5025618;28;20481;-77
2022/03/19 07:33:35;;;;;;;20.95;17.20;;;;;;;;;;5021912;28;20104;-77
2022/03/19 07:36:03;;;;;;;20.77;17.38;;;;;;;;;;5020981;28;20152;-76
2022/03/19 07:38:31;;;;;;;22.33;18.63;;;;;;;;;;5024431;28;20280;-76
2022/03/19 07:43:43;;;;;;;24.30;20.15;;;;;;;;;;5023178;28;20032;-76
2022/03/19 07:46:10;;;;;;;21.27;18.80;;;;;;;;;;5024373;28;20164;-77
2022/03/19 07:48:36;;;;;;;20.95;17.50;;;;;;;;;;5026125;28;20438;-76
2022/03/19 07:51:03;;;;;;;23.08;20.33;;;;;;;;;;5025424;28;20120;-77
2022/03/19 07:53:29;;;;;;;25.83;22.27;;;;;;;;;;5022070;28;20025;-76
2022/03/19 07:55:56;;;;;;;29.90;22.73;;;;;;;;;;5016502;28;20018;-76
2022/03/19 07:58:22;;;;;;;27.73;24.08;;;;;;;;;;5024817;28;20029;-76
2022/03/19 08:00:48;;;;;;;28.50;22.17;;;;;;;;;;5023973;28;20030;-77
2022/03/19 08:03:15;;;;;;;30.17;25.02;;;;;;;;;;5023200;28;20538;-77
2022/03/19 08:05:42;;;;;;;32.90;27.30;;;;;;;;;;5026279;28;20033;-76
2022/03/19 08:08:08;;;;;;;34.72;27.15;;;;;;;;;;5023860;28;20539;-76
2022/03/19 08:10:38;;;;;;;36.33;28.70;;;;;;;;;;5026643;28;20039;-76
2022/03/19 08:13:05;;;;;;;34.40;26.75;;;;;;;;;;5024819;28;20048;-76
2022/03/19 08:15:32;;;;;;;34.45;27.80;;;;;;;;;;5024787;28;20029;-77
2022/03/19 08:18:13;;;;;;;33.35;26.05;;;;;;;;;;5031271;28;20491;-76
2022/03/19 08:20:40;;;;;;;32.10;25.70;;;;;;;;;;5025043;28;20086;-76
2022/03/19 08:23:15;;;;;;;31.30;24.42;;;;;;;;;;5030934;28;20034;-76
2022/03/19 08:25:44;;;;;;;31.55;25.10;;;;;;;;;;5023233;28;20041;-76
2022/03/19 08:28:10;;;;;;;33.53;26.33;;;;;;;;;;5031480;28;20482;-76
2022/03/19 08:30:40;;;;;;;35.90;25.65;;;;;;;;;;5028582;28;20040;-76
2022/03/19 08:33:07;;;;;;;31.73;25.15;;;;;;;;;;5027304;28;20141;-76
2022/03/19 08:35:33;;;;;;;30.40;24.80;;;;;;;;;;5030892;28;20083;-76
2022/03/19 08:40:45;;;;;;;34.30;26.23;;;;;;;;;;5030878;28;20490;-77
2022/03/19 08:43:11;;;;;;;31.95;27.00;;;;;;;;;;5025216;28;20083;-77
2022/03/19 08:45:37;;;;;;;32.60;28.02;;;;;;;;;;5030025;28;20072;-76
2022/03/19 08:48:04;;;;;;;34.50;26.60;;;;;;;;;;5029477;28;20030;-77
2022/03/19 08:50:30;;;;;;;33.03;26.45;;;;;;;;;;5034537;28;20125;-77
2022/03/19 08:52:56;;;;;;;30.65;26.50;;;;;;;;;;5044789;28;20059;-76
2022/03/19 08:55:23;;;;;;;35.75;28.63;;;;;;;;;;5027945;28;20152;-76
2022/03/19 08:57:49;;;;;;;34.28;27.25;;;;;;;;;;5029322;28;20025;-76
2022/03/19 09:00:15;;;;;;;36.90;28.63;;;;;;;;;;5028069;28;20511;-76
2022/03/19 09:02:42;;;;;;;30.95;26.13;;;;;;;;;;5028484;28;20029;-77
2022/03/19 09:05:09;;;;;;;31.83;25.25;;;;;;;;;;5030803;28;20052;-75
2022/03/19 09:07:35;;;;;;;30.67;24.02;;;;;;;;;;5029335;28;20052;-76
2022/03/19 09:10:01;;;;;;;32.17;23.40;;;;;;;;;;5029572;28;20029;-76
2022/03/19 09:12:28;;;;;;;31.70;24.35;;;;;;;;;;5027805;28;20017;-77
2022/03/19 09:14:55;;;;;;;29.58;24.00;;;;;;;;;;5027752;28;20022;-76
2022/03/19 09:17:21;;;;;;;29.98;25.33;;;;;;;;;;5031393;28;20112;-76
2022/03/19 09:19:48;;;;;;;28.67;25.55;;;;;;;;;;5025501;28;20025;-75
2022/03/19 09:22:14;;;;;;;30.50;24.77;;;;;;;;;;5022787;28;20034;-77
2022/03/19 09:24:41;;;;;;;29.88;24.38;;;;;;;;;;5030591;28;20353;-76
2022/03/19 09:27:08;;;;;;;26.80;22.10;;;;;;;;;;5023849;28;20033;-76
2022/03/19 09:29:34;;;;;;;29.33;23.75;;;;;;;;;;5021651;28;20014;-76
2022/03/19 09:32:01;;;;;;;34.80;24.48;;;;;;;;;;5019856;28;20492;-75
2022/03/19 09:34:27;;;;;;;29.15;24.30;;;;;;;;;;5023678;28;20538;-76
2022/03/19 09:36:54;;;;;;;27.52;24.55;;;;;;;;;;5024392;28;20025;-76
2022/03/19 09:39:20;;;;;;;29.15;24.73;;;;;;;;;;5025189;28;20033;-76
2022/03/19 09:41:47;;;;;;;28.92;24.48;;;;;;;;;;5025280;28;20026;-76
2022/03/19 09:44:16;;;;;;;29.73;22.83;;;;;;;;;;5027910;28;20017;-75
2022/03/19 09:46:45;;;;;;;32.58;24.90;;;;;;;;;;5019091;28;20025;-77
2022/03/19 09:49:11;;;;;;;33.03;26.35;;;;;;;;;;5024099;28;20063;-76
2022/03/19 09:51:40;;;;;;;34.28;27.02;;;;;;;;;;5021587;28;20033;-78
2022/03/19 09:54:09;;;;;;;30.60;26.98;;;;;;;;;;5020136;28;20387;-77
2022/03/19 09:56:37;;;;;;;34.30;28.30;;;;;;;;;;5022681;28;20413;-76
2022/03/19 09:59:03;;;;;;;39.38;31.55;;;;;;;;;;5020999;28;20465;-76
2022/03/19 10:01:33;;;;;;;38.50;30.10;;;;;;;;;;5023194;28;20072;-75
2022/03/19 10:04:09;;;;;;;33.53;28.60;;;;;;;;;;5020888;28;20106;-76
2022/03/19 10:09:33;;;;;;;34.13;27.17;;;;;;;;;;5027349;28;20533;-76
2022/03/19 10:12:01;;;;;;;33.75;28.30;;;;;;;;;;5026546;28;20022;-77
2022/03/19 10:14:27;;;;;;;36.88;29.85;;;;;;;;;;5030168;28;20044;-76
2022/03/19 10:16:56;;;;;;;39.00;31.05;;;;;;;;;;5016559;28;20060;-75
2022/03/19 10:19:22;;;;;;;36.20;29.65;;;;;;;;;;5022737;28;20120;-77
2022/03/19 10:21:49;;;;;;;37.53;31.08;;;;;;;;;;5027331;28;20030;-75
2022/03/19 10:24:23;;;;;;;39.42;30.30;;;;;;;;;;5026095;28;20099;-77
2022/03/19 10:26:50;;;;;;;36.25;29.27;;;;;;;;;;5022095;28;20122;-76
2022/03/19 10:29:22;;;;;;;36.70;28.85;;;;;;;;;;5020699;28;20030;-76
2022/03/19 10:31:50;;;;;;;36.70;30.75;;;;;;;;;;5023619;28;20046;-76
2022/03/19 10:34:16;;;;;;;40.25;32.22;;;;;;;;;;5024544;28;20033;-76
2022/03/19 10:36:44;;;;;;;39.20;30.63;;;;;;;;;;5026281;28;20029;-76
2022/03/19 10:39:18;;;;;;;39.60;33.22;;;;;;;;;;5022705;28;20034;-77
2022/03/19 10:41:44;;;;;;;34.70;30.58;;;;;;;;;;5022640;28;20080;-76
2022/03/19 10:44:12;;;;;;;36.47;29.98;;;;;;;;;;5025149;28;20025;-77
2022/03/19 10:46:39;;;;;;;37.83;29.40;;;;;;;;;;5023962;28;20399;-77
2022/03/19 10:49:11;;;;;;;39.10;31.35;;;;;;;;;;5019871;28;20022;-78
2022/03/19 10:51:40;;;;;;;39.20;31.73;;;;;;;;;;5022272;28;20025;-76
2022/03/19 10:54:07;;;;;;;42.10;33.60;;;;;;;;;;5021010;28;20017;-77
2022/03/19 10:56:34;;;;;;;28.30;24.30;;;;;;;;;;5023281;28;20018;-75
2022/03/19 10:59:00;;;;;;;28.45;22.52;;;;;;;;;;5022997;28;20025;-77
2022/03/19 11:01:28;;;;;;;26.05;19.88;;;;;;;;;;5025140;28;20037;-76
2022/03/19 11:03:56;;;;;;;22.13;18.15;;;;;;;;;;5022814;28;20045;-76
2022/03/19 11:06:24;;;;;;;29.63;21.10;;;;;;;;;;5019795;28;20522;-75
2022/03/19 11:08:51;;;;;;;29.17;20.75;;;;;;;;;;5021082;28;20480;-78
2022/03/19 11:11:18;;;;;;;26.20;20.77;;;;;;;;;;5021525;28;20116;-76
2022/03/19 11:13:49;;;;;;;17.55;13.95;;;;;;;;;;5021008;28;20029;-77
2022/03/19 11:16:16;;;;;;;21.85;15.93;;;;;;;;;;5025815;28;20037;-77
2022/03/19 11:18:43;;;;;;;20.20;14.45;;;;;;;;;;5020363;28;20076;-77
2022/03/19 11:21:10;;;;;;;16.65;12.80;;;;;;;;;;5023124;28;20029;-76
2022/03/19 11:23:46;;;;;;;17.85;13.35;;;;;;;;;;5020020;28;20048;-77
2022/03/19 11:26:14;;;;;;;20.40;13.48;;;;;;;;;;5021672;28;20032;-76
2022/03/19 11:28:40;;;;;;;20.83;13.63;;;;;;;;;;5021015;28;20032;-75
2022/03/19 11:31:08;;;;;;;18.48;12.95;;;;;;;;;;5021443;28;20017;-76
2022/03/19 11:33:36;;;;;;;18.45;12.30;;;;;;;;;;5024722;28;20052;-76
2022/03/19 11:36:04;;;;;;;15.27;12.10;;;;;;;;;;5022611;28;20034;-76
2022/03/19 11:38:34;;;;;;;17.83;12.60;;;;;;;;;;5022365;28;20479;-76
2022/03/19 11:41:16;;;;;;;17.95;12.93;;;;;;;;;;5024749;28;20108;-76
2022/03/19 11:43:43;;;;;;;17.98;13.07;;;;;;;;;;5024155;28;20025;-77
2022/03/19 11:46:13;;;;;;;19.52;13.32;;;;;;;;;;5024977;28;20025;-77
2022/03/19 11:48:47;;;;;;;20.33;11.73;;;;;;;;;;5023211;28;20033;-76
2022/03/19 11:51:17;;;;;;;18.35;11.60;;;;;;;;;;5025204;28;20030;-77
2022/03/19 11:53:55;;;;;;;13.90;10.48;;;;;;;;;;5028249;28;20018;-76
2022/03/19 11:56:22;;;;;;;15.50;10.88;;;;;;;;;;5028627;28;20112;-78
2022/03/19 11:58:49;;;;;;;15.70;11.60;;;;;;;;;;5030027;28;20034;-76
2022/03/19 12:01:16;;;;;;;20.10;13.35;;;;;;;;;;5029138;28;20384;-76
2022/03/19 12:04:10;;;;;;;20.08;13.68;;;;;;;;;;5031051;28;20083;-77
2022/03/19 12:06:41;;;;;;;21.35;15.07;;;;;;;;;;5026469;28;20052;-77
2022/03/19 12:09:08;;;;;;;24.60;16.95;;;;;;;;;;5023814;28;20037;-77
2022/03/19 12:11:36;;;;;;;24.38;18.48;;;;;;;;;;5026607;28;20072;-77
2022/03/19 12:14:10;;;;;;;24.83;17.27;;;;;;;;;;5031239;28;20392;-76
2022/03/19 12:16:39;;;;;;;23.77;17.08;;;;;;;;;;5021520;28;20084;-77
2022/03/19 12:19:06;;;;;;;27.08;17.65;;;;;;;;;;5032236;28;20025;-77
2022/03/19 12:21:36;;;;;;;27.77;18.42;;;;;;;;;;5025970;28;20422;-78
2022/03/19 12:24:14;;;;;;;27.60;20.67;;;;;;;;;;5024817;28;20513;-77
2022/03/19 12:26:50;;;;;;;33.42;22.02;;;;;;;;;;5024946;28;20049;-77
2022/03/19 12:29:17;;;;;;;29.83;20.95;;;;;;;;;;5032276;28;20399;-76
2022/03/19 12:31:46;;;;;;;29.77;19.85;;;;;;;;;;5028243;28;20022;-76
2022/03/19 12:34:15;;;;;;;33.45;22.77;;;;;;;;;;5025213;28;20034;-76
2022/03/19 12:36:42;;;;;;;32.08;22.17;;;;;;;;;;5023955;28;20480;-77
2022/03/19 12:39:08;;;;;;;34.05;24.40;;;;;;;;;;5023181;28;20064;-77
2022/03/19 12:41:34;;;;;;;39.35;26.88;;;;;;;;;;5027827;28;20029;-76
2022/03/19 12:44:04;;;;;;;37.08;26.38;;;;;;;;;;5030322;28;20048;-76
2022/03/19 12:46:31;;;;;;;41.47;29.63;;;;;;;;;;5024025;28;20033;-75
2022/03/19 12:49:06;;;;;;;47.38;33.03;;;;;;;;;;5024077;28;20375;-75
2022/03/19 12:51:34;;;;;;;51.35;35.80;;;;;;;;;;5024096;28;20471;-76
2022/03/19 12:54:00;;;;;;;45.10;32.33;;;;;;;;;;5022428;28;20388;-76
2022/03/19 12:56:28;;;;;;;50.33;32.25;;;;;;;;;;5023044;28;20044;-76
2022/03/19 12:58:55;;;;;;;38.63;28.50;;;;;;;;;;5023738;28;20034;-76
2022/03/19 13:01:23;;;;;;;40.45;28.52;;;;;;;;;;5026177;28;20042;-76
2022/03/19 13:03:53;;;;;;;42.22;29.85;;;;;;;;;;5014272;28;20516;-76
2022/03/19 13:06:29;;;;;;;43.75;31.33;;;;;;;;;;5008100;28;20040;-75
2022/03/19 13:08:56;;;;;;;50.80;34.47;;;;;;;;;;5009604;28;20022;-76
2022/03/19 13:11:23;;;;;;;49.00;34.72;;;;;;;;;;4984839;28;20413;-75
2022/03/19 13:13:49;;;;;;;53.92;36.58;;;;;;;;;;5004774;28;20052;-77
2022/03/19 13:16:29;;;;;;;53.90;38.90;;;;;;;;;;4990652;28;20030;-76
2022/03/19 13:19:04;;;;;;;55.65;39.65;;;;;;;;;;5006414;28;20112;-76
2022/03/19 13:21:31;;;;;;;62.55;40.70;;;;;;;;;;5009362;28;20050;-76
2022/03/19 13:23:59;;;;;;;66.28;45.40;;;;;;;;;;5006594;28;20487;-75
2022/03/19 13:26:27;;;;;;;63.42;43.70;;;;;;;;;;5012647;28;20030;-75
2022/03/19 13:29:12;;;;;;;63.25;44.60;;;;;;;;;;5011834;28;20028;-77
2022/03/19 13:31:42;;;;;;;63.20;42.40;;;;;;;;;;5008857;28;20428;-76
2022/03/19 13:34:08;;;;;;;64.68;42.92;;;;;;;;;;5009806;28;20109;-76
2022/03/19 13:36:35;;;;;;;58.95;41.55;;;;;;;;;;5013282;28;20036;-76
2022/03/19 13:39:01;;;;;;;60.47;39.78;;;;;;;;;;5013074;28;20032;-76
2022/03/19 13:41:28;;;;;;;53.90;39.78;;;;;;;;;;5010872;28;20361;-76
2022/03/19 13:43:57;;;;;;;56.03;39.22;;;;;;;;;;4993507;28;20076;-76
2022/03/19 13:46:23;;;;;;;64.75;45.42;;;;;;;;;;5011747;28;20034;-76
2022/03/19 13:49:10;;;;;;;45.17;31.35;;;;;;;;;;5011749;28;20502;-75
2022/03/19 13:51:43;;;;;;;37.50;23.75;;;;;;;;;;5008483;28;20487;-75
2022/03/19 13:54:09;;;;;;;31.73;24.10;;;;;;;;;;5013447;28;20026;-75
2022/03/19 13:56:48;;;;;;;37.17;24.70;;;;;;;;;;5011297;28;20400;-75
2022/03/19 13:59:30;;;;;;;31.75;22.80;;;;;;;;;;4993418;28;20034;-77
2022/03/19 14:01:56;;;;;;;36.05;22.77;;;;;;;;;;5009416;28;20026;-75
2022/03/19 14:04:26;;;;;;;39.17;29.25;;;;;;;;;;5020960;28;20045;-77
2022/03/19 14:06:53;;;;;;;45.70;33.63;;;;;;;;;;5028103;28;20026;-76
2022/03/19 14:09:20;;;;;;;47.70;32.33;;;;;;;;;;5025230;28;20021;-76
2022/03/19 14:11:48;;;;;;;46.03;33.15;;;;;;;;;;5024562;28;20025;-76
2022/03/19 14:14:18;;;;;;;48.33;32.17;;;;;;;;;;5019817;28;20110;-77
2022/03/19 14:16:55;;;;;;;43.75;33.30;;;;;;;;;;5022660;28;20112;-75
2022/03/19 14:19:22;;;;;;;43.65;31.13;;;;;;;;;;5024967;28;20030;-77
2022/03/19 14:21:48;;;;;;;41.95;30.63;;;;;;;;;;5023513;28;20025;-77
2022/03/19 14:24:15;;;;;;;42.65;30.20;;;;;;;;;;5026071;28;20396;-76
2022/03/19 14:26:42;;;;;;;47.88;34.38;;;;;;;;;;5027923;28;20029;-76
2022/03/19 14:29:13;;;;;;;48.78;35.85;;;;;;;;;;5022824;28;20508;-76
2022/03/19 14:31:39;;;;;;;53.60;37.20;;;;;;;;;;5024774;28;20217;-76
2022/03/19 14:34:06;;;;;;;49.53;35.28;;;;;;;;;;5026541;28;20049;-75